createdAt,value
2022-07-25T00:01:20.685Z,57.86
2022-07-25T00:03:49.049Z,57.89
2022-07-25T00:06:17.796Z,58.15
2022-07-25T00:08:45.988Z,58.32
2022-07-25T00:11:13.819Z,58.27
2022-07-25T00:13:41.613Z,58.58
2022-07-25T00:16:09.808Z,59.00
2022-07-25T00:18:39.100Z,58.94
2022-07-25T00:21:07.247Z,59.19
2022-07-25T00:23:35.061Z,59.10
2022-07-25T00:26:02.954Z,58.97
2022-07-25T00:28:30.767Z,59.04
2022-07-25T00:30:58.693Z,59.00
2022-07-25T00:33:26.578Z,59.24
2022-07-25T00:35:55.813Z,59.11
2022-07-25T00:38:23.624Z,59.13
2022-07-25T00:40:55.495Z,59.51
2022-07-25T00:43:23.642Z,59.55
2022-07-25T00:45:51.513Z,59.45
2022-07-25T00:48:19.446Z,59.82
2022-07-25T00:50:47.368Z,59.90
2022-07-25T00:53:17.046Z,60.18
2022-07-25T00:55:45.006Z,60.14
2022-07-25T00:58:12.937Z,60.25
2022-07-25T01:00:41.008Z,60.17
2022-07-25T01:03:08.925Z,59.92
2022-07-25T01:05:36.812Z,59.79
2022-07-25T01:08:05.055Z,60.07
2022-07-25T01:10:34.874Z,60.17
2022-07-25T01:13:03.468Z,60.35
2022-07-25T01:15:31.385Z,60.46
2022-07-25T01:17:59.736Z,60.54
2022-07-25T01:20:30.864Z,60.85
2022-07-25T01:22:59.816Z,61.13
2022-07-25T01:25:28.949Z,61.29
2022-07-25T01:27:57.849Z,61.43
2022-07-25T01:30:26.745Z,61.67
2022-07-25T01:32:54.793Z,61.91
2022-07-25T01:35:22.648Z,62.15
2022-07-25T01:37:51.846Z,62.17
2022-07-25T01:40:19.775Z,62.18
2022-07-25T01:42:47.937Z,62.14
2022-07-25T01:45:15.828Z,62.48
2022-07-25T01:47:43.652Z,62.69
2022-07-25T01:50:12.061Z,62.72
2022-07-25T01:52:40.656Z,62.94
2022-07-25T01:55:10.510Z,62.93
2022-07-25T01:57:39.148Z,62.90
2022-07-25T02:00:11.595Z,63.09
2022-07-25T02:02:44.315Z,63.33
2022-07-25T02:05:13.968Z,63.34
2022-07-25T02:07:41.820Z,63.56
2022-07-25T02:10:11.470Z,63.69
2022-07-25T02:12:39.277Z,63.66
2022-07-25T02:15:08.571Z,63.85
2022-07-25T02:17:36.358Z,64.32
2022-07-25T02:20:05.153Z,64.54
2022-07-25T02:22:32.955Z,64.45
2022-07-25T02:25:00.826Z,65.00
2022-07-25T02:27:29.983Z,64.88
2022-07-25T02:29:57.799Z,64.87
2022-07-25T02:32:25.593Z,64.79
2022-07-25T02:34:53.751Z,64.90
2022-07-25T02:37:21.563Z,64.99
2022-07-25T02:39:49.622Z,65.22
2022-07-25T02:42:17.671Z,64.63
2022-07-25T02:44:46.824Z,64.61
2022-07-25T02:47:14.633Z,64.77
2022-07-25T02:49:42.465Z,63.97
2022-07-25T02:52:10.391Z,63.58
2022-07-25T02:54:38.264Z,63.23
2022-07-25T02:57:06.079Z,63.00
2022-07-25T02:59:33.881Z,62.75
2022-07-25T03:02:03.043Z,62.37
2022-07-25T03:04:31.358Z,62.28
2022-07-25T03:06:59.168Z,62.48
2022-07-25T03:09:26.992Z,62.80
2022-07-25T03:11:54.866Z,63.10
2022-07-25T03:14:22.716Z,63.46
2022-07-25T03:16:50.555Z,63.94
2022-07-25T03:19:19.751Z,64.23
2022-07-25T03:21:47.563Z,64.25
2022-07-25T03:24:15.508Z,64.59
2022-07-25T03:26:43.319Z,64.65
2022-07-25T03:29:11.155Z,64.99
2022-07-25T03:31:40.052Z,65.01
2022-07-25T03:34:08.301Z,65.30
2022-07-25T03:36:37.699Z,65.46
2022-07-25T03:39:05.788Z,65.66
2022-07-25T03:41:33.899Z,65.82
2022-07-25T03:44:01.698Z,66.05
2022-07-25T03:46:29.536Z,66.28
2022-07-25T03:48:57.539Z,66.37
2022-07-25T03:51:25.603Z,66.23
2022-07-25T03:54:04.498Z,66.00
2022-07-25T03:56:34.115Z,66.14
2022-07-25T03:59:01.968Z,66.07
2022-07-25T04:01:29.914Z,65.95
2022-07-25T04:03:57.819Z,66.14
2022-07-25T04:06:26.275Z,66.39
2022-07-25T04:08:56.245Z,66.75
2022-07-25T04:11:24.252Z,67.13
2022-07-25T04:13:52.696Z,67.59
2022-07-25T04:16:22.154Z,67.86
2022-07-25T04:18:50.705Z,68.37
2022-07-25T04:21:19.848Z,68.45
2022-07-25T04:23:47.749Z,68.26
2022-07-25T04:26:17.453Z,68.57
2022-07-25T04:28:45.349Z,69.04
2022-07-25T04:31:13.301Z,68.62
2022-07-25T04:33:41.767Z,68.66
2022-07-25T04:36:10.107Z,68.63
2022-07-25T04:38:38.368Z,68.49
2022-07-25T04:41:06.447Z,68.40
2022-07-25T04:43:35.753Z,68.10
2022-07-25T04:46:03.726Z,67.39
2022-07-25T04:48:31.816Z,66.94
2022-07-25T04:50:59.737Z,66.78
2022-07-25T04:53:27.616Z,66.60
2022-07-25T04:55:55.469Z,66.53
2022-07-25T04:58:23.389Z,66.54
2022-07-25T05:00:52.997Z,66.43
2022-07-25T05:03:20.986Z,66.15
2022-07-25T05:05:48.865Z,66.16
2022-07-25T05:08:16.700Z,66.07
2022-07-25T05:10:44.634Z,66.30
2022-07-25T05:13:12.540Z,65.95
2022-07-25T05:15:41.160Z,66.21
2022-07-25T05:18:10.421Z,65.95
2022-07-25T05:20:38.237Z,66.01
2022-07-25T05:23:06.152Z,66.05
2022-07-25T05:25:34.428Z,66.19
2022-07-25T05:28:03.058Z,66.07
2022-07-25T05:30:31.004Z,65.97
2022-07-25T05:32:58.889Z,66.08
2022-07-25T05:35:28.300Z,65.69
2022-07-25T05:37:56.317Z,65.77
2022-07-25T05:40:24.442Z,65.47
2022-07-25T05:42:52.302Z,65.34
2022-07-25T05:45:20.180Z,65.35
2022-07-25T05:47:48.005Z,64.66
2022-07-25T05:50:15.873Z,64.15
2022-07-25T05:52:45.223Z,63.69
2022-07-25T05:55:13.706Z,63.63
2022-07-25T05:57:41.563Z,63.54
2022-07-25T06:00:10.470Z,63.30
2022-07-25T06:02:38.507Z,62.72
2022-07-25T06:05:06.744Z,62.85
2022-07-25T06:07:34.656Z,62.75
2022-07-25T06:10:04.481Z,62.24
2022-07-25T06:12:33.651Z,62.20
2022-07-25T06:15:05.034Z,62.42
2022-07-25T06:17:33.174Z,61.50
2022-07-25T06:20:01.233Z,61.88
2022-07-25T06:22:29.020Z,61.60
2022-07-25T06:24:56.835Z,60.69
2022-07-25T06:27:29.223Z,60.93
2022-07-25T06:29:57.554Z,60.97
2022-07-25T06:32:25.478Z,60.19
2022-07-25T06:34:53.293Z,60.01
2022-07-25T06:37:21.127Z,60.36
2022-07-25T06:39:49.259Z,60.04
2022-07-25T06:42:17.073Z,59.61
2022-07-25T06:44:46.579Z,59.73
2022-07-25T06:47:14.658Z,60.02
2022-07-25T06:49:43.379Z,59.82
2022-07-25T06:52:11.443Z,59.65
2022-07-25T06:54:39.502Z,59.25
2022-07-25T06:57:08.981Z,58.07
2022-07-25T06:59:36.811Z,57.83
2022-07-25T07:02:05.971Z,58.10
2022-07-25T07:04:33.808Z,57.73
2022-07-25T07:07:01.676Z,57.09
2022-07-25T07:09:29.787Z,57.02
2022-07-25T07:11:57.716Z,57.06
2022-07-25T07:14:25.581Z,56.63
2022-07-25T07:16:53.414Z,56.07
2022-07-25T07:19:22.629Z,55.46
2022-07-25T07:21:51.485Z,55.35
2022-07-25T07:24:23.831Z,55.75
2022-07-25T07:26:52.604Z,55.45
2022-07-25T07:29:20.502Z,54.77
2022-07-25T07:31:48.386Z,55.10
2022-07-25T07:34:16.615Z,55.14
2022-07-25T07:36:46.015Z,54.81
2022-07-25T07:39:13.956Z,53.86
2022-07-25T07:41:41.878Z,53.28
2022-07-25T07:44:09.743Z,53.23
2022-07-25T07:46:37.749Z,53.22
2022-07-25T07:49:05.948Z,52.72
2022-07-25T07:51:34.014Z,51.48
2022-07-25T07:54:20.912Z,51.12
2022-07-25T07:56:48.986Z,50.65
2022-07-25T07:59:17.104Z,50.10
2022-07-25T08:01:44.933Z,50.02
2022-07-25T08:04:12.973Z,48.90
2022-07-25T08:06:42.978Z,48.73
2022-07-25T08:09:12.282Z,48.25
2022-07-25T08:11:40.094Z,48.19
2022-07-25T08:14:08.336Z,47.58
2022-07-25T08:16:36.471Z,47.83
2022-07-25T08:19:04.583Z,47.02
2022-07-25T08:21:32.387Z,47.20
2022-07-25T08:24:00.233Z,46.42
2022-07-25T08:26:31.225Z,46.24
2022-07-25T08:29:17.610Z,45.32
2022-07-25T08:31:45.839Z,44.60
2022-07-25T08:34:13.800Z,43.73
2022-07-25T08:36:41.631Z,43.62
2022-07-25T08:39:10.424Z,43.08
2022-07-25T08:41:41.911Z,43.42
2022-07-25T08:44:10.549Z,43.03
2022-07-25T08:46:41.651Z,42.57
2022-07-25T08:49:10.640Z,42.12
2022-07-25T08:51:40.300Z,41.78
2022-07-25T08:54:08.771Z,41.73
2022-07-25T08:56:36.962Z,40.77
2022-07-25T08:59:06.190Z,39.99
2022-07-25T09:01:35.115Z,39.55
2022-07-25T09:04:04.876Z,39.50
2022-07-25T09:06:33.087Z,38.82
2022-07-25T09:09:04.751Z,38.56
2022-07-25T09:11:35.137Z,38.17
2022-07-25T09:14:06.813Z,38.32
2022-07-25T09:16:40.097Z,37.53
2022-07-25T09:19:11.857Z,36.90
2022-07-25T09:21:41.004Z,36.81
2022-07-25T09:24:13.726Z,36.22
2022-07-25T09:26:49.604Z,36.14
2022-07-25T09:29:23.115Z,34.99
2022-07-25T09:31:54.052Z,35.27
2022-07-25T09:34:34.692Z,34.35
2022-07-25T09:37:03.880Z,34.28
2022-07-25T09:39:45.785Z,34.54
2022-07-25T09:42:23.113Z,34.23
2022-07-25T09:45:07.902Z,33.91
2022-07-25T09:47:38.595Z,32.88
2022-07-25T09:50:07.727Z,33.34
2022-07-25T09:52:36.775Z,32.90
2022-07-25T09:55:06.630Z,32.60
2022-07-25T09:57:34.519Z,33.23
2022-07-25T10:00:02.914Z,33.10
2022-07-25T10:02:49.262Z,33.13
2022-07-25T10:05:20.760Z,31.81
2022-07-25T10:07:51.469Z,32.68
2022-07-25T10:10:26.230Z,32.81
2022-07-25T10:13:10.288Z,32.62
2022-07-25T10:15:44.593Z,32.33
2022-07-25T10:18:14.851Z,31.73
2022-07-25T10:20:44.046Z,31.55
2022-07-25T10:23:22.255Z,31.63
2022-07-25T10:26:01.884Z,31.63
2022-07-25T10:28:39.317Z,31.88
2022-07-25T10:31:17.360Z,32.16
2022-07-25T10:33:49.727Z,31.56
2022-07-25T10:36:17.719Z,31.38
2022-07-25T10:38:46.010Z,31.15
2022-07-25T10:41:15.317Z,31.62
2022-07-25T10:43:48.508Z,31.41
2022-07-25T10:46:20.545Z,30.72
2022-07-25T10:49:00.703Z,30.43
2022-07-25T10:51:29.535Z,30.33
2022-07-25T10:53:57.656Z,30.31
2022-07-25T10:56:28.009Z,30.38
2022-07-25T10:58:56.955Z,30.36
2022-07-25T11:01:26.978Z,30.46
2022-07-25T11:03:58.383Z,30.22
2022-07-25T11:06:37.004Z,30.38
2022-07-25T11:09:06.248Z,30.67
2022-07-25T11:11:35.972Z,29.37
2022-07-25T11:14:04.605Z,29.39
2022-07-25T11:16:32.465Z,29.80
2022-07-25T11:19:00.430Z,29.96
2022-07-25T11:21:28.186Z,30.42
2022-07-25T11:23:57.372Z,30.29
2022-07-25T11:26:25.201Z,29.26
2022-07-25T11:28:53.140Z,29.04
2022-07-25T11:31:23.898Z,29.16
2022-07-25T11:33:52.008Z,29.90
2022-07-25T11:36:20.012Z,29.97
2022-07-25T11:38:50.280Z,29.10
2022-07-25T11:41:29.257Z,30.03
2022-07-25T11:43:57.398Z,29.40
2022-07-25T11:46:25.752Z,29.47
2022-07-25T11:49:05.909Z,29.19
2022-07-25T11:51:38.686Z,29.58
2022-07-25T11:54:11.753Z,29.67
2022-07-25T11:56:43.905Z,29.28
2022-07-25T11:59:12.469Z,29.34
2022-07-25T12:01:42.739Z,29.63
2022-07-25T12:04:12.897Z,29.43
2022-07-25T12:06:41.233Z,29.36
2022-07-25T12:09:19.263Z,29.45
2022-07-25T12:11:49.951Z,28.92
2022-07-25T12:14:18.341Z,29.42
2022-07-25T12:16:46.223Z,28.62
2022-07-25T12:19:21.463Z,29.16
2022-07-25T12:21:49.321Z,28.88
2022-07-25T12:24:17.193Z,28.71
2022-07-25T12:26:45.119Z,29.04
2022-07-25T12:29:14.372Z,29.15
2022-07-25T12:31:42.184Z,29.25
2022-07-25T12:34:10.054Z,28.89
2022-07-25T12:36:43.982Z,27.37
2022-07-25T12:39:12.492Z,27.30
2022-07-25T12:41:42.691Z,26.89
2022-07-25T12:44:10.964Z,26.69
2022-07-25T12:46:47.245Z,26.95
2022-07-25T12:49:16.959Z,26.62
2022-07-25T12:51:45.011Z,26.55
2022-07-25T12:54:12.892Z,26.47
2022-07-25T12:56:42.506Z,26.95
2022-07-25T12:59:10.542Z,26.94
2022-07-25T13:01:39.853Z,27.07
2022-07-25T13:04:09.314Z,27.05
2022-07-25T13:06:38.915Z,27.64
2022-07-25T13:09:07.708Z,27.76
2022-07-25T13:11:35.866Z,27.61
2022-07-25T13:14:03.866Z,27.44
2022-07-25T13:16:31.812Z,27.39
2022-07-25T13:19:01.146Z,27.34
2022-07-25T13:21:29.582Z,27.28
2022-07-25T13:23:57.403Z,27.38
2022-07-25T13:26:25.465Z,28.04
2022-07-25T13:28:57.923Z,27.66
2022-07-25T13:31:27.687Z,26.70
2022-07-25T13:33:55.867Z,26.46
2022-07-25T13:36:25.007Z,26.67
2022-07-25T13:38:52.844Z,26.27
2022-07-25T13:41:21.001Z,26.21
2022-07-25T13:43:48.905Z,26.25
2022-07-25T13:46:17.953Z,25.79
2022-07-25T13:48:46.001Z,25.71
2022-07-25T13:51:14.587Z,26.46
2022-07-25T13:53:44.906Z,26.77
2022-07-25T13:56:13.869Z,26.68
2022-07-25T13:58:42.021Z,26.43
2022-07-25T14:01:11.674Z,26.07
2022-07-25T14:03:40.025Z,26.07
2022-07-25T14:06:10.702Z,26.22
2022-07-25T14:08:40.202Z,25.71
2022-07-25T14:11:09.441Z,24.73
2022-07-25T14:13:37.559Z,25.47
2022-07-25T14:16:06.313Z,25.61
2022-07-25T14:18:34.107Z,25.49
2022-07-25T14:21:01.932Z,25.10
2022-07-25T14:23:30.318Z,25.46
2022-07-25T14:25:59.443Z,25.27
2022-07-25T14:28:28.654Z,26.06
2022-07-25T14:30:56.647Z,25.95
2022-07-25T14:33:24.477Z,25.89
2022-07-25T14:35:52.301Z,25.46
2022-07-25T14:38:20.144Z,25.65
2022-07-25T14:40:47.998Z,26.16
2022-07-25T14:43:15.872Z,26.19
2022-07-25T14:45:45.079Z,26.66
2022-07-25T14:48:12.918Z,26.12
2022-07-25T14:50:41.763Z,25.41
2022-07-25T14:53:09.612Z,25.25
2022-07-25T14:55:37.897Z,25.71
2022-07-25T14:58:05.855Z,25.74
2022-07-25T15:00:33.892Z,26.21
2022-07-25T15:03:03.100Z,25.90
2022-07-25T15:05:30.926Z,25.88
2022-07-25T15:07:58.929Z,25.32
2022-07-25T15:10:26.747Z,25.44
2022-07-25T15:13:13.969Z,26.01
2022-07-25T15:15:42.365Z,25.98
2022-07-25T15:18:14.034Z,26.03
2022-07-25T15:20:42.208Z,26.42
2022-07-25T15:23:10.023Z,26.40
2022-07-25T15:28:26.169Z,26.97
2022-07-25T15:30:54.011Z,26.96
2022-07-25T15:33:23.338Z,27.09
2022-07-25T15:35:51.149Z,27.97
2022-07-25T15:38:19.477Z,29.57
2022-07-25T15:40:48.025Z,32.37
2022-07-25T15:43:15.964Z,34.49
2022-07-25T15:45:45.926Z,36.18
2022-07-25T15:48:16.777Z,37.21
2022-07-25T15:50:47.669Z,40.12
2022-07-25T15:53:16.291Z,42.84
2022-07-25T15:55:44.429Z,43.26
2022-07-25T15:58:13.004Z,44.39
2022-07-25T16:00:41.788Z,45.30
2022-07-25T16:03:12.182Z,46.69
2022-07-25T16:05:40.905Z,48.38
2022-07-25T16:08:11.127Z,49.89
2022-07-25T16:10:39.830Z,51.46
2022-07-25T16:13:07.826Z,51.81
2022-07-25T16:15:36.375Z,52.10
2022-07-25T16:18:04.441Z,52.64
2022-07-25T16:20:33.314Z,53.56
2022-07-25T16:23:01.601Z,54.27
2022-07-25T16:25:31.521Z,55.16
2022-07-25T16:28:00.312Z,54.29
2022-07-25T16:30:28.526Z,53.07
2022-07-25T16:32:56.459Z,52.24
2022-07-25T16:35:24.965Z,51.98
2022-07-25T16:37:52.928Z,52.50
2022-07-25T16:40:21.139Z,50.52
2022-07-25T16:42:52.283Z,51.51
2022-07-25T16:45:20.312Z,52.93
2022-07-25T16:47:48.107Z,53.86
2022-07-25T16:50:15.969Z,53.93
2022-07-25T16:52:44.275Z,54.63
2022-07-25T16:55:12.248Z,55.79
2022-07-25T16:57:40.225Z,56.16
2022-07-25T17:00:11.057Z,55.80
2022-07-25T17:02:39.796Z,55.28
2022-07-25T17:05:08.171Z,54.56
2022-07-25T17:07:36.241Z,54.72
2022-07-25T17:10:05.105Z,54.54
2022-07-25T17:12:33.039Z,52.37
2022-07-25T17:15:01.035Z,52.69
2022-07-25T17:17:30.286Z,52.83
2022-07-25T17:20:00.165Z,52.93
2022-07-25T17:22:28.348Z,52.54
2022-07-25T17:24:56.257Z,52.00
2022-07-25T17:27:25.297Z,52.28
2022-07-25T17:29:53.100Z,52.34
2022-07-25T17:32:23.013Z,52.38
2022-07-25T17:34:54.488Z,51.99
2022-07-25T17:37:22.835Z,51.84
2022-07-25T17:39:50.708Z,52.07
2022-07-25T17:42:22.264Z,52.00
2022-07-25T17:44:50.359Z,52.50
2022-07-25T17:47:19.170Z,53.19
2022-07-25T17:49:47.106Z,53.44
2022-07-25T17:52:17.790Z,54.41
2022-07-25T17:54:45.772Z,54.75
2022-07-25T17:57:13.570Z,54.89
2022-07-25T17:59:41.602Z,55.40
2022-07-25T18:02:09.753Z,55.68
2022-07-25T18:04:38.037Z,56.49
2022-07-25T18:07:08.527Z,56.86
2022-07-25T18:09:38.071Z,56.82
2022-07-25T18:12:06.722Z,57.60
2022-07-25T18:14:34.897Z,57.89
2022-07-25T18:17:02.897Z,57.75
2022-07-25T18:19:30.855Z,58.19
2022-07-25T18:21:59.049Z,58.80
2022-07-25T18:24:29.351Z,59.48
2022-07-25T18:27:00.308Z,59.24
2022-07-25T18:29:28.156Z,59.66
2022-07-25T18:31:56.003Z,60.09
2022-07-25T18:34:23.958Z,60.58
2022-07-25T18:36:51.899Z,61.45
2022-07-25T18:39:19.795Z,61.56
2022-07-25T18:41:47.852Z,60.76
2022-07-25T18:44:17.641Z,59.42
2022-07-25T18:46:46.228Z,57.59
2022-07-25T18:49:14.301Z,57.36
2022-07-25T18:51:42.231Z,57.68
2022-07-25T18:54:10.767Z,58.66
2022-07-25T18:56:38.885Z,59.25
2022-07-25T18:59:07.314Z,60.00
2022-07-25T19:01:37.288Z,60.75
2022-07-25T19:04:06.176Z,60.82
2022-07-25T19:06:34.283Z,61.54
2022-07-25T19:09:02.173Z,62.10
2022-07-25T19:11:30.077Z,62.61
2022-07-25T19:13:57.917Z,62.85
2022-07-25T19:16:26.156Z,63.02
2022-07-25T19:18:55.549Z,62.72
2022-07-25T19:21:23.615Z,62.98
2022-07-25T19:23:51.642Z,63.07
2022-07-25T19:26:20.145Z,63.87
2022-07-25T19:28:48.199Z,63.79
2022-07-25T19:31:16.085Z,64.37
2022-07-25T19:33:45.647Z,64.35
2022-07-25T19:36:14.989Z,64.40
2022-07-25T19:38:43.058Z,64.96
2022-07-25T19:41:11.077Z,65.00
2022-07-25T19:43:38.899Z,65.34
2022-07-25T19:46:06.942Z,67.27
2022-07-25T19:48:34.958Z,71.34
2022-07-25T19:51:03.157Z,73.94
2022-07-25T19:53:32.469Z,75.87
2022-07-25T19:56:01.344Z,77.30
2022-07-25T19:58:29.401Z,78.84
2022-07-25T20:00:57.394Z,80.76
2022-07-25T20:03:25.264Z,81.88
2022-07-25T20:05:53.487Z,81.96
2022-07-25T20:08:21.390Z,82.60
2022-07-25T20:10:50.762Z,83.18
2022-07-25T20:13:18.682Z,83.53
2022-07-25T20:15:46.627Z,84.27
2022-07-25T20:18:19.266Z,84.90
2022-07-25T20:20:47.782Z,84.99
2022-07-25T20:23:15.683Z,86.05
2022-07-25T20:25:48.028Z,87.03
2022-07-25T20:28:17.352Z,87.44
2022-07-25T20:30:45.404Z,88.02
2022-07-25T20:33:13.341Z,87.92
2022-07-25T20:35:41.194Z,87.42
2022-07-25T20:38:10.392Z,87.37
2022-07-25T20:40:48.149Z,87.10
2022-07-25T20:43:19.400Z,87.86
2022-07-25T20:45:47.705Z,88.14
2022-07-25T20:48:15.769Z,88.60
2022-07-25T20:50:44.070Z,89.12
2022-07-25T20:53:12.860Z,88.90
2022-07-25T20:55:40.710Z,89.02
2022-07-25T20:58:08.791Z,88.73
2022-07-25T21:00:38.145Z,89.91
2022-07-25T21:03:08.046Z,90.43
2022-07-25T21:05:37.730Z,90.68
2022-07-25T21:08:06.089Z,91.61
2022-07-25T21:10:34.284Z,92.17
2022-07-25T21:13:02.460Z,92.08
2022-07-25T21:15:30.896Z,92.46
2022-07-25T21:18:00.687Z,92.38
2022-07-25T21:20:28.636Z,92.22
2022-07-25T21:22:56.538Z,92.63
2022-07-25T21:25:24.409Z,93.04
2022-07-25T21:27:52.345Z,92.80
2022-07-25T21:30:20.165Z,92.64
2022-07-25T21:32:48.146Z,92.93
2022-07-25T21:35:18.167Z,93.37
2022-07-25T21:37:46.249Z,93.58
2022-07-25T21:40:14.292Z,93.60
2022-07-25T21:42:42.628Z,93.50
2022-07-25T21:45:11.413Z,93.29
2022-07-25T21:47:39.775Z,93.52
2022-07-25T21:50:25.856Z,93.56
2022-07-25T21:52:55.267Z,93.27
2022-07-25T21:55:23.139Z,93.61
2022-07-25T21:57:52.326Z,94.09
2022-07-25T22:00:21.391Z,94.06
2022-07-25T22:02:49.571Z,94.16
2022-07-25T22:05:18.809Z,94.13
2022-07-25T22:07:47.612Z,93.57
2022-07-25T22:10:18.445Z,93.07
2022-07-25T22:12:46.423Z,93.39
2022-07-25T22:15:15.077Z,93.41
2022-07-25T22:17:48.345Z,93.79
2022-07-25T22:20:17.839Z,93.60
2022-07-25T22:22:46.226Z,93.95
2022-07-25T22:25:14.420Z,94.08
2022-07-25T22:27:43.709Z,93.71
2022-07-25T22:30:18.482Z,94.20
2022-07-25T22:32:47.794Z,94.74
2022-07-25T22:35:15.992Z,94.80
2022-07-25T22:37:44.204Z,95.10
2022-07-25T22:40:13.303Z,94.97
2022-07-25T22:42:41.656Z,94.99
2022-07-25T22:45:11.790Z,94.68
2022-07-25T22:47:39.730Z,94.63
2022-07-25T22:50:09.794Z,94.75
2022-07-25T22:52:37.769Z,94.60
2022-07-25T22:55:06.303Z,94.73
2022-07-25T22:57:37.146Z,95.68
2022-07-25T23:00:09.218Z,95.46
2022-07-25T23:02:38.523Z,95.90
2022-07-25T23:05:07.489Z,96.88
2022-07-25T23:07:35.772Z,97.52
2022-07-25T23:10:05.274Z,97.47
2022-07-25T23:12:33.095Z,97.32
2022-07-25T23:15:01.033Z,97.14
2022-07-25T23:17:29.006Z,97.09
2022-07-25T23:19:58.751Z,97.39
2022-07-25T23:22:30.793Z,97.29
2022-07-25T23:24:59.563Z,97.19
2022-07-25T23:27:27.868Z,96.94
2022-07-25T23:29:57.320Z,97.66
2022-07-25T23:32:25.187Z,98.28
2022-07-25T23:34:53.064Z,98.17
2022-07-25T23:37:22.207Z,98.64
2022-07-25T23:39:50.068Z,99.20
2022-07-25T23:42:17.852Z,99.52
2022-07-25T23:44:46.053Z,99.12
2022-07-25T23:47:15.041Z,99.65
2022-07-25T23:49:43.246Z,99.85
2022-07-25T23:52:11.150Z,99.97
2022-07-25T23:54:40.981Z,99.79
2022-07-25T23:57:09.404Z,99.60
2022-07-25T23:59:37.405Z,100.00
